sensor_id;sensor_type;location;lat;lon;timestamp;pressure;altitude;pressure_sealevel;temperature;humidity
30875;BME280;17581;43.222;27.924;2024-03-08T00:00:14;101070.69;;;8.17;83.91
30875;BME280;17581;43.222;27.924;2024-03-08T00:02:40;101062.75;;;8.15;83.76
30875;BME280;17581;43.222;27.924;2024-03-08T00:05:07;101068.00;;;8.17;83.26
30875;BME280;17581;43.222;27.924;2024-03-08T00:07:36;101067.72;;;8.21;82.96
30875;BME280;17581;43.222;27.924;2024-03-08T00:10:08;101067.34;;;8.28;82.68
30875;BME280;17581;43.222;27.924;2024-03-08T00:12:40;101039.50;;;8.16;82.12
30875;BME280;17581;43.222;27.924;2024-03-08T00:15:09;101054.13;;;8.25;82.29
30875;BME280;17581;43.222;27.924;2024-03-08T00:17:36;101040.06;;;8.21;82.29
30875;BME280;17581;43.222;27.924;2024-03-08T00:20:01;101027.34;;;8.25;81.57
30875;BME280;17581;43.222;27.924;2024-03-08T00:22:28;101035.47;;;8.37;81.62
30875;BME280;17581;43.222;27.924;2024-03-08T00:24:55;101014.50;;;8.30;81.66
30875;BME280;17581;43.222;27.924;2024-03-08T00:27:21;101022.81;;;8.39;80.97
30875;BME280;17581;43.222;27.924;2024-03-08T00:29:47;101025.41;;;8.41;80.65
30875;BME280;17581;43.222;27.924;2024-03-08T00:32:12;101016.78;;;8.36;80.63
30875;BME280;17581;43.222;27.924;2024-03-08T00:34:38;101009.28;;;8.28;81.24
30875;BME280;17581;43.222;27.924;2024-03-08T00:37:04;101033.09;;;8.18;81.42
30875;BME280;17581;43.222;27.924;2024-03-08T00:39:29;101020.09;;;8.12;81.34
30875;BME280;17581;43.222;27.924;2024-03-08T00:41:55;101028.09;;;8.27;81.78
30875;BME280;17581;43.222;27.924;2024-03-08T00:44:20;101022.72;;;8.27;81.47
30875;BME280;17581;43.222;27.924;2024-03-08T00:46:46;101021.50;;;8.32;81.70
30875;BME280;17581;43.222;27.924;2024-03-08T00:49:11;101034.13;;;8.30;81.38
30875;BME280;17581;43.222;27.924;2024-03-08T00:51:37;101016.78;;;8.36;81.31
30875;BME280;17581;43.222;27.924;2024-03-08T00:54:03;101015.38;;;8.30;81.06
30875;BME280;17581;43.222;27.924;2024-03-08T00:56:28;101009.06;;;8.31;81.01
30875;BME280;17581;43.222;27.924;2024-03-08T00:58:54;101004.28;;;8.22;81.01
30875;BME280;17581;43.222;27.924;2024-03-08T01:01:19;101016.44;;;8.28;80.93
30875;BME280;17581;43.222;27.924;2024-03-08T01:03:45;101009.66;;;8.22;80.70
30875;BME280;17581;43.222;27.924;2024-03-08T01:06:10;101015.72;;;8.38;80.72
30875;BME280;17581;43.222;27.924;2024-03-08T01:08:37;101012.22;;;8.50;80.15
30875;BME280;17581;43.222;27.924;2024-03-08T01:11:06;101016.63;;;8.51;79.35
30875;BME280;17581;43.222;27.924;2024-03-08T01:13:32;100990.00;;;8.36;79.21
30875;BME280;17581;43.222;27.924;2024-03-08T01:15:57;101005.38;;;8.46;78.21
30875;BME280;17581;43.222;27.924;2024-03-08T01:18:23;101015.97;;;8.48;78.91
30875;BME280;17581;43.222;27.924;2024-03-08T01:20:48;101008.25;;;8.43;78.47
30875;BME280;17581;43.222;27.924;2024-03-08T01:23:14;101011.56;;;8.34;78.02
30875;BME280;17581;43.222;27.924;2024-03-08T01:25:39;100991.69;;;8.10;77.98
30875;BME280;17581;43.222;27.924;2024-03-08T01:28:06;101007.56;;;8.13;78.06
30875;BME280;17581;43.222;27.924;2024-03-08T01:30:32;101004.69;;;8.16;78.54
30875;BME280;17581;43.222;27.924;2024-03-08T01:32:59;101004.88;;;8.13;78.96
30875;BME280;17581;43.222;27.924;2024-03-08T01:35:24;101013.66;;;8.15;79.08
30875;BME280;17581;43.222;27.924;2024-03-08T01:37:51;101014.88;;;8.23;78.71
30875;BME280;17581;43.222;27.924;2024-03-08T01:40:17;101016.19;;;8.04;78.22
30875;BME280;17581;43.222;27.924;2024-03-08T01:42:42;101029.63;;;8.16;78.62
30875;BME280;17581;43.222;27.924;2024-03-08T01:45:08;101022.50;;;8.03;77.84
30875;BME280;17581;43.222;27.924;2024-03-08T01:47:34;101016.19;;;8.04;77.88
30875;BME280;17581;43.222;27.924;2024-03-08T01:50:01;101025.22;;;7.89;77.99
30875;BME280;17581;43.222;27.924;2024-03-08T01:52:29;101027.03;;;7.88;78.70
30875;BME280;17581;43.222;27.924;2024-03-08T01:54:58;101022.53;;;7.89;78.29
30875;BME280;17581;43.222;27.924;2024-03-08T01:57:26;101017.97;;;7.77;78.62
30875;BME280;17581;43.222;27.924;2024-03-08T01:59:53;101030.19;;;7.81;78.69
30875;BME280;17581;43.222;27.924;2024-03-08T02:02:21;101025.97;;;7.91;78.43
30875;BME280;17581;43.222;27.924;2024-03-08T02:04:47;101027.31;;;7.84;78.47
30875;BME280;17581;43.222;27.924;2024-03-08T02:07:13;101011.84;;;7.75;78.35
30875;BME280;17581;43.222;27.924;2024-03-08T02:09:38;101029.31;;;7.80;77.85
30875;BME280;17581;43.222;27.924;2024-03-08T02:12:05;101031.44;;;7.75;78.43
30875;BME280;17581;43.222;27.924;2024-03-08T02:14:30;101037.66;;;7.76;78.10
30875;BME280;17581;43.222;27.924;2024-03-08T02:17:00;101017.59;;;7.54;78.88
30875;BME280;17581;43.222;27.924;2024-03-08T02:19:26;101009.25;;;7.59;78.85
30875;BME280;17581;43.222;27.924;2024-03-08T02:21:51;101002.22;;;7.58;79.02
30875;BME280;17581;43.222;27.924;2024-03-08T02:24:17;101015.97;;;7.52;78.93
30875;BME280;17581;43.222;27.924;2024-03-08T02:26:42;101021.69;;;7.60;79.41
30875;BME280;17581;43.222;27.924;2024-03-08T02:29:09;101013.38;;;7.50;79.00
30875;BME280;17581;43.222;27.924;2024-03-08T02:31:36;101021.41;;;7.50;79.48
30875;BME280;17581;43.222;27.924;2024-03-08T02:34:01;101027.06;;;7.60;79.38
30875;BME280;17581;43.222;27.924;2024-03-08T02:36:27;101038.81;;;7.57;79.66
30875;BME280;17581;43.222;27.924;2024-03-08T02:38:52;101033.28;;;7.60;79.85
30875;BME280;17581;43.222;27.924;2024-03-08T02:41:20;101038.25;;;7.66;79.70
30875;BME280;17581;43.222;27.924;2024-03-08T02:43:46;101042.34;;;7.72;79.04
30875;BME280;17581;43.222;27.924;2024-03-08T02:46:11;101050.56;;;7.69;78.21
30875;BME280;17581;43.222;27.924;2024-03-08T02:48:37;101034.59;;;7.67;78.44
30875;BME280;17581;43.222;27.924;2024-03-08T02:51:02;101040.22;;;7.77;78.90
30875;BME280;17581;43.222;27.924;2024-03-08T02:53:28;101043.78;;;7.92;79.06
30875;BME280;17581;43.222;27.924;2024-03-08T02:55:54;101050.56;;;7.97;78.25
30875;BME280;17581;43.222;27.924;2024-03-08T02:58:20;101045.75;;;8.02;77.93
30875;BME280;17581;43.222;27.924;2024-03-08T03:00:45;101046.63;;;8.03;77.03
30875;BME280;17581;43.222;27.924;2024-03-08T03:03:11;101047.00;;;7.97;77.08
30875;BME280;17581;43.222;27.924;2024-03-08T03:05:36;101043.19;;;8.01;77.29
30875;BME280;17581;43.222;27.924;2024-03-08T03:08:02;101045.00;;;8.00;77.55
30875;BME280;17581;43.222;27.924;2024-03-08T03:10:29;101047.94;;;8.10;77.07
30875;BME280;17581;43.222;27.924;2024-03-08T03:12:54;101046.03;;;8.12;76.86
30875;BME280;17581;43.222;27.924;2024-03-08T03:15:20;101029.41;;;7.93;77.23
30875;BME280;17581;43.222;27.924;2024-03-08T03:17:49;101012.78;;;7.88;76.52
30875;BME280;17581;43.222;27.924;2024-03-08T03:20:19;101039.44;;;8.03;76.52
30875;BME280;17581;43.222;27.924;2024-03-08T03:22:58;101018.28;;;7.99;76.72
30875;BME280;17581;43.222;27.924;2024-03-08T03:25:26;101033.97;;;8.05;76.01
30875;BME280;17581;43.222;27.924;2024-03-08T03:27:54;101026.44;;;7.97;76.09
30875;BME280;17581;43.222;27.924;2024-03-08T03:30:25;101035.34;;;7.98;75.52
30875;BME280;17581;43.222;27.924;2024-03-08T03:32:52;101036.50;;;7.94;76.18
30875;BME280;17581;43.222;27.924;2024-03-08T03:35:20;101044.13;;;8.00;76.58
30875;BME280;17581;43.222;27.924;2024-03-08T03:37:46;101049.13;;;7.92;76.64
30875;BME280;17581;43.222;27.924;2024-03-08T03:40:39;101040.97;;;7.93;76.28
30875;BME280;17581;43.222;27.924;2024-03-08T03:43:08;101042.25;;;7.88;76.86
30875;BME280;17581;43.222;27.924;2024-03-08T03:45:36;101034.78;;;7.79;76.46
30875;BME280;17581;43.222;27.924;2024-03-08T03:48:06;101046.44;;;7.78;77.50
30875;BME280;17581;43.222;27.924;2024-03-08T03:50:32;101042.34;;;7.72;77.57
30875;BME280;17581;43.222;27.924;2024-03-08T03:52:59;101026.00;;;7.77;77.22
30875;BME280;17581;43.222;27.924;2024-03-08T03:55:25;101045.78;;;7.88;77.43
30875;BME280;17581;43.222;27.924;2024-03-08T03:57:50;101030.38;;;7.78;76.97
30875;BME280;17581;43.222;27.924;2024-03-08T04:00:16;101028.72;;;7.89;76.86
30875;BME280;17581;43.222;27.924;2024-03-08T04:02:41;101041.06;;;8.06;76.90
30875;BME280;17581;43.222;27.924;2024-03-08T04:05:08;101023.28;;;7.91;76.93
30875;BME280;17581;43.222;27.924;2024-03-08T04:07:35;101041.09;;;7.92;76.68
30875;BME280;17581;43.222;27.924;2024-03-08T04:10:04;101036.31;;;7.83;76.79
30875;BME280;17581;43.222;27.924;2024-03-08T04:12:33;101045.66;;;7.90;76.81
30875;BME280;17581;43.222;27.924;2024-03-08T04:15:01;101039.75;;;7.85;76.41
30875;BME280;17581;43.222;27.924;2024-03-08T04:17:26;101030.38;;;7.78;76.43
30875;BME280;17581;43.222;27.924;2024-03-08T04:19:52;101032.50;;;7.73;76.97
30875;BME280;17581;43.222;27.924;2024-03-08T04:22:18;101037.47;;;7.79;77.21
30875;BME280;17581;43.222;27.924;2024-03-08T04:24:44;101041.41;;;7.73;77.10
30875;BME280;17581;43.222;27.924;2024-03-08T04:27:10;101042.16;;;7.75;77.13
30875;BME280;17581;43.222;27.924;2024-03-08T04:29:35;101042.81;;;7.79;77.13
30875;BME280;17581;43.222;27.924;2024-03-08T04:32:03;101039.00;;;7.83;77.04
30875;BME280;17581;43.222;27.924;2024-03-08T04:34:30;101038.34;;;7.79;77.15
30875;BME280;17581;43.222;27.924;2024-03-08T04:36:57;101034.19;;;7.74;77.22
30875;BME280;17581;43.222;27.924;2024-03-08T04:39:23;101042.81;;;7.79;76.68
30875;BME280;17581;43.222;27.924;2024-03-08T04:41:49;101029.50;;;7.77;77.29
30875;BME280;17581;43.222;27.924;2024-03-08T04:44:15;101047.78;;;7.85;77.21
30875;BME280;17581;43.222;27.924;2024-03-08T04:46:42;101042.44;;;7.85;76.78
30875;BME280;17581;43.222;27.924;2024-03-08T04:49:08;101036.53;;;7.80;76.83
30875;BME280;17581;43.222;27.924;2024-03-08T04:51:33;101044.34;;;7.83;76.88
30875;BME280;17581;43.222;27.924;2024-03-08T04:53:59;101045.78;;;7.88;76.85
30875;BME280;17581;43.222;27.924;2024-03-08T04:56:25;101053.16;;;7.85;76.99
30875;BME280;17581;43.222;27.924;2024-03-08T04:58:51;101043.78;;;7.63;77.26
30875;BME280;17581;43.222;27.924;2024-03-08T05:01:16;101045.28;;;7.67;77.38
30875;BME280;17581;43.222;27.924;2024-03-08T05:03:42;101056.41;;;7.76;77.52
30875;BME280;17581;43.222;27.924;2024-03-08T05:06:08;101053.81;;;7.60;77.89
30875;BME280;17581;43.222;27.924;2024-03-08T05:08:33;101057.06;;;7.65;78.09
30875;BME280;17581;43.222;27.924;2024-03-08T05:10:59;101055.38;;;7.64;78.31
30875;BME280;17581;43.222;27.924;2024-03-08T05:13:30;101050.47;;;7.56;78.69
30875;BME280;17581;43.222;27.924;2024-03-08T05:15:56;101077.81;;;7.61;78.90
30875;BME280;17581;43.222;27.924;2024-03-08T05:18:23;101061.56;;;7.50;78.88
30875;BME280;17581;43.222;27.924;2024-03-08T05:20:49;101035.38;;;7.27;79.03
30875;BME280;17581;43.222;27.924;2024-03-08T05:23:15;101054.84;;;7.43;79.37
30875;BME280;17581;43.222;27.924;2024-03-08T05:25:40;101076.47;;;7.54;80.04
30875;BME280;17581;43.222;27.924;2024-03-08T05:28:06;101079.34;;;7.65;79.50
30875;BME280;17581;43.222;27.924;2024-03-08T05:30:32;101068.81;;;7.62;79.98
30875;BME280;17581;43.222;27.924;2024-03-08T05:32:57;101081.44;;;7.60;80.34
30875;BME280;17581;43.222;27.924;2024-03-08T05:35:23;101083.16;;;7.61;80.00
30875;BME280;17581;43.222;27.924;2024-03-08T05:37:49;101080.88;;;7.70;80.48
30875;BME280;17581;43.222;27.924;2024-03-08T05:40:15;101070.44;;;7.65;80.06
30875;BME280;17581;43.222;27.924;2024-03-08T05:42:40;101084.78;;;7.78;79.64
30875;BME280;17581;43.222;27.924;2024-03-08T05:45:06;101091.69;;;7.82;79.66
30875;BME280;17581;43.222;27.924;2024-03-08T05:47:32;101094.25;;;7.84;80.06
30875;BME280;17581;43.222;27.924;2024-03-08T05:50:01;101085.00;;;7.75;80.31
30875;BME280;17581;43.222;27.924;2024-03-08T05:52:31;101095.59;;;7.91;80.40
30875;BME280;17581;43.222;27.924;2024-03-08T05:54:59;101094.75;;;7.90;79.97
30875;BME280;17581;43.222;27.924;2024-03-08T05:57:24;101077.81;;;7.90;80.42
30875;BME280;17581;43.222;27.924;2024-03-08T05:59:49;101089.56;;;7.87;80.23
30875;BME280;17581;43.222;27.924;2024-03-08T06:02:15;101092.72;;;7.94;80.69
30875;BME280;17581;43.222;27.924;2024-03-08T06:04:47;101090.72;;;7.97;79.97
30875;BME280;17581;43.222;27.924;2024-03-08T06:07:12;101080.09;;;7.96;80.03
30875;BME280;17581;43.222;27.924;2024-03-08T06:09:38;101104.97;;;8.12;80.50
30875;BME280;17581;43.222;27.924;2024-03-08T06:12:04;101117.00;;;8.19;80.43
30875;BME280;17581;43.222;27.924;2024-03-08T06:14:31;101094.78;;;8.17;79.99
30875;BME280;17581;43.222;27.924;2024-03-08T06:16:57;101115.28;;;8.32;80.19
30875;BME280;17581;43.222;27.924;2024-03-08T06:19:22;101107.59;;;8.26;79.66
30875;BME280;17581;43.222;27.924;2024-03-08T06:21:48;101113.84;;;8.41;79.92
30875;BME280;17581;43.222;27.924;2024-03-08T06:24:13;101101.28;;;8.41;79.76
30875;BME280;17581;43.222;27.924;2024-03-08T06:26:40;101105.91;;;8.39;78.59
30875;BME280;17581;43.222;27.924;2024-03-08T06:29:06;101123.31;;;8.32;79.28
30875;BME280;17581;43.222;27.924;2024-03-08T06:31:32;101118.53;;;8.23;78.87
30875;BME280;17581;43.222;27.924;2024-03-08T06:33:57;101094.78;;;8.17;79.32
30875;BME280;17581;43.222;27.924;2024-03-08T06:36:23;101130.63;;;8.30;79.38
30875;BME280;17581;43.222;27.924;2024-03-08T06:38:49;101103.50;;;8.20;79.55
30875;BME280;17581;43.222;27.924;2024-03-08T06:41:15;101120.56;;;8.34;79.73
30875;BME280;17581;43.222;27.924;2024-03-08T06:43:44;101124.38;;;8.30;79.30
30875;BME280;17581;43.222;27.924;2024-03-08T06:46:10;101120.84;;;8.29;78.97
30875;BME280;17581;43.222;27.924;2024-03-08T06:48:38;101124.94;;;8.20;79.07
30875;BME280;17581;43.222;27.924;2024-03-08T06:51:04;101121.69;;;8.15;79.46
30875;BME280;17581;43.222;27.924;2024-03-08T06:53:30;101125.59;;;8.24;79.97
30875;BME280;17581;43.222;27.924;2024-03-08T06:55:56;101134.41;;;8.26;79.87
30875;BME280;17581;43.222;27.924;2024-03-08T06:58:22;101130.03;;;8.25;79.79
30875;BME280;17581;43.222;27.924;2024-03-08T07:00:48;101123.22;;;8.19;79.18
30875;BME280;17581;43.222;27.924;2024-03-08T07:03:17;101136.31;;;8.24;79.72
30875;BME280;17581;43.222;27.924;2024-03-08T07:05:43;101138.44;;;8.19;79.09
30875;BME280;17581;43.222;27.924;2024-03-08T07:08:08;101139.75;;;8.26;79.92
30875;BME280;17581;43.222;27.924;2024-03-08T07:10:34;101124.66;;;8.11;79.47
30875;BME280;17581;43.222;27.924;2024-03-08T07:13:00;101139.78;;;8.12;79.82
30875;BME280;17581;43.222;27.924;2024-03-08T07:15:27;101141.88;;;8.21;80.11
30875;BME280;17581;43.222;27.924;2024-03-08T07:17:53;101140.16;;;8.20;79.47
30875;BME280;17581;43.222;27.924;2024-03-08T07:20:19;101143.53;;;8.09;79.78
30875;BME280;17581;43.222;27.924;2024-03-08T07:22:47;101138.44;;;8.19;80.34
30875;BME280;17581;43.222;27.924;2024-03-08T07:25:14;101138.25;;;8.22;79.73
30875;BME280;17581;43.222;27.924;2024-03-08T07:27:55;101135.28;;;8.27;80.02
30875;BME280;17581;43.222;27.924;2024-03-08T07:30:23;101135.97;;;8.30;79.98
30875;BME280;17581;43.222;27.924;2024-03-08T07:33:08;101137.09;;;8.40;79.70
30875;BME280;17581;43.222;27.924;2024-03-08T07:35:37;101136.44;;;8.37;79.39
30875;BME280;17581;43.222;27.924;2024-03-08T07:38:12;101141.41;;;8.43;78.95
30875;BME280;17581;43.222;27.924;2024-03-08T07:40:41;101121.91;;;8.41;79.45
30875;BME280;17581;43.222;27.924;2024-03-08T07:43:10;101135.91;;;8.58;79.13
30875;BME280;17581;43.222;27.924;2024-03-08T07:45:37;101131.72;;;8.54;77.82
30875;BME280;17581;43.222;27.924;2024-03-08T07:48:03;101145.72;;;8.45;77.64
30875;BME280;17581;43.222;27.924;2024-03-08T07:50:28;101134.31;;;8.42;78.14
30875;BME280;17581;43.222;27.924;2024-03-08T07:52:54;101141.28;;;8.58;78.57
30875;BME280;17581;43.222;27.924;2024-03-08T07:55:20;101132.47;;;8.56;78.50
30875;BME280;17581;43.222;27.924;2024-03-08T07:57:45;101134.84;;;8.61;79.06
30875;BME280;17581;43.222;27.924;2024-03-08T08:00:13;101126.91;;;8.59;78.81
30875;BME280;17581;43.222;27.924;2024-03-08T08:02:46;101128.13;;;8.68;78.59
30875;BME280;17581;43.222;27.924;2024-03-08T08:05:11;101145.19;;;8.67;77.92
30875;BME280;17581;43.222;27.924;2024-03-08T08:07:37;101105.66;;;8.56;78.74
30875;BME280;17581;43.222;27.924;2024-03-08T08:10:03;101126.09;;;8.71;78.24
30875;BME280;17581;43.222;27.924;2024-03-08T08:12:28;101131.06;;;8.77;77.99
30875;BME280;17581;43.222;27.924;2024-03-08T08:14:54;101122.47;;;8.72;78.12
30875;BME280;17581;43.222;27.924;2024-03-08T08:17:20;101141.41;;;8.84;78.55
30875;BME280;17581;43.222;27.924;2024-03-08T08:19:45;101130.28;;;9.02;78.50
30875;BME280;17581;43.222;27.924;2024-03-08T08:22:11;101125.78;;;9.03;76.62
30875;BME280;17581;43.222;27.924;2024-03-08T08:24:37;101133.25;;;8.85;77.27
30875;BME280;17581;43.222;27.924;2024-03-08T08:27:03;101133.91;;;8.89;77.81
30875;BME280;17581;43.222;27.924;2024-03-08T08:29:29;101126.81;;;8.88;77.54
30875;BME280;17581;43.222;27.924;2024-03-08T08:31:57;101150.72;;;9.05;77.88
30875;BME280;17581;43.222;27.924;2024-03-08T08:34:24;101142.81;;;8.89;77.63
30875;BME280;17581;43.222;27.924;2024-03-08T08:36:51;101136.25;;;8.93;77.09
30875;BME280;17581;43.222;27.924;2024-03-08T08:39:17;101131.56;;;8.97;77.45
30875;BME280;17581;43.222;27.924;2024-03-08T08:41:43;101136.53;;;9.03;77.27
30875;BME280;17581;43.222;27.924;2024-03-08T08:44:08;101143.81;;;9.01;77.36
30875;BME280;17581;43.222;27.924;2024-03-08T08:46:36;101139.78;;;9.08;77.57
30875;BME280;17581;43.222;27.924;2024-03-08T08:49:03;101142.13;;;9.12;77.07
30875;BME280;17581;43.222;27.924;2024-03-08T08:51:29;101145.75;;;9.11;77.27
30875;BME280;17581;43.222;27.924;2024-03-08T08:53:55;101148.19;;;9.28;77.06
30875;BME280;17581;43.222;27.924;2024-03-08T08:56:21;101134.88;;;9.27;76.93
30875;BME280;17581;43.222;27.924;2024-03-08T08:58:47;101150.34;;;9.36;76.68
30875;BME280;17581;43.222;27.924;2024-03-08T09:01:14;101148.84;;;9.32;76.45
30875;BME280;17581;43.222;27.924;2024-03-08T09:03:39;101157.56;;;9.36;76.67
30875;BME280;17581;43.222;27.924;2024-03-08T09:06:12;101131.44;;;9.25;76.46
30875;BME280;17581;43.222;27.924;2024-03-08T09:08:38;101152.50;;;9.31;76.33
30875;BME280;17581;43.222;27.924;2024-03-08T09:11:04;101141.75;;;9.31;76.84
30875;BME280;17581;43.222;27.924;2024-03-08T09:13:31;101147.41;;;9.26;76.72
30875;BME280;17581;43.222;27.924;2024-03-08T09:15:59;101132.06;;;9.16;76.26
30875;BME280;17581;43.222;27.924;2024-03-08T09:18:25;101145.75;;;9.11;76.32
30875;BME280;17581;43.222;27.924;2024-03-08T09:20:52;101151.34;;;9.08;76.63
30875;BME280;17581;43.222;27.924;2024-03-08T09:23:21;101147.28;;;9.15;77.03
30875;BME280;17581;43.222;27.924;2024-03-08T09:25:47;101148.16;;;9.16;77.19
30875;BME280;17581;43.222;27.924;2024-03-08T09:28:12;101145.75;;;9.11;76.88
30875;BME280;17581;43.222;27.924;2024-03-08T09:30:39;101159.59;;;9.05;76.97
30875;BME280;17581;43.222;27.924;2024-03-08T09:33:05;101157.22;;;9.01;77.11
30875;BME280;17581;43.222;27.924;2024-03-08T09:35:31;101155.66;;;9.11;77.16
30875;BME280;17581;43.222;27.924;2024-03-08T09:37:56;101160.84;;;9.26;77.47
30875;BME280;17581;43.222;27.924;2024-03-08T09:40:22;101152.72;;;9.41;77.05
30875;BME280;17581;43.222;27.924;2024-03-08T09:42:49;101159.19;;;9.51;76.05
30875;BME280;17581;43.222;27.924;2024-03-08T09:45:16;101140.91;;;9.43;75.10
30875;BME280;17581;43.222;27.924;2024-03-08T09:47:44;101159.81;;;9.54;75.24
30875;BME280;17581;43.222;27.924;2024-03-08T09:50:11;101147.91;;;9.58;74.59
30875;BME280;17581;43.222;27.924;2024-03-08T09:52:41;101149.22;;;9.65;74.35
30875;BME280;17581;43.222;27.924;2024-03-08T09:55:07;101146.31;;;9.56;74.66
30875;BME280;17581;43.222;27.924;2024-03-08T09:57:33;101144.28;;;9.59;74.62
30875;BME280;17581;43.222;27.924;2024-03-08T10:00:01;101126.13;;;9.50;74.30
30875;BME280;17581;43.222;27.924;2024-03-08T10:02:27;101139.22;;;9.67;74.47
30875;BME280;17581;43.222;27.924;2024-03-08T10:04:53;101150.41;;;9.87;74.34
30875;BME280;17581;43.222;27.924;2024-03-08T10:07:19;101155.13;;;9.96;73.19
30875;BME280;17581;43.222;27.924;2024-03-08T10:09:44;101136.41;;;9.94;72.73
30875;BME280;17581;43.222;27.924;2024-03-08T10:12:16;101136.19;;;9.97;72.51
30875;BME280;17581;43.222;27.924;2024-03-08T10:14:44;101145.69;;;10.15;72.60
30875;BME280;17581;43.222;27.924;2024-03-08T10:17:09;101151.25;;;10.25;71.87
30875;BME280;17581;43.222;27.924;2024-03-08T10:19:35;101143.31;;;10.36;71.58
30875;BME280;17581;43.222;27.924;2024-03-08T10:22:00;101119.19;;;10.34;70.98
30875;BME280;17581;43.222;27.924;2024-03-08T10:24:26;101144.25;;;10.35;70.35
30875;BME280;17581;43.222;27.924;2024-03-08T10:27:01;101138.78;;;10.36;70.08
30875;BME280;17581;43.222;27.924;2024-03-08T10:29:33;101139.53;;;10.26;70.57
30875;BME280;17581;43.222;27.924;2024-03-08T10:31:59;101136.94;;;10.37;70.97
30875;BME280;17581;43.222;27.924;2024-03-08T10:34:25;101121.59;;;10.01;70.40
30875;BME280;17581;43.222;27.924;2024-03-08T10:36:51;101142.91;;;10.17;70.46
30875;BME280;17581;43.222;27.924;2024-03-08T10:39:24;101122.03;;;9.95;70.46
30875;BME280;17581;43.222;27.924;2024-03-08T10:41:56;101136.19;;;10.10;71.04
30875;BME280;17581;43.222;27.924;2024-03-08T10:44:49;101143.09;;;10.01;70.28
30875;BME280;17581;43.222;27.924;2024-03-08T10:47:26;101142.22;;;9.75;70.73
30875;BME280;17581;43.222;27.924;2024-03-08T10:52:29;101150.19;;;9.90;71.46
30875;BME280;17581;43.222;27.924;2024-03-08T10:54:57;101138.50;;;9.91;71.34
30875;BME280;17581;43.222;27.924;2024-03-08T10:57:24;101145.13;;;9.98;71.29
30875;BME280;17581;43.222;27.924;2024-03-08T10:59:50;101138.78;;;9.99;70.85
30875;BME280;17581;43.222;27.924;2024-03-08T11:02:16;101124.19;;;9.77;69.48
30875;BME280;17581;43.222;27.924;2024-03-08T11:04:48;101130.09;;;9.82;70.07
30875;BME280;17581;43.222;27.924;2024-03-08T11:07:15;101128.69;;;9.77;69.81
30875;BME280;17581;43.222;27.924;2024-03-08T11:09:48;101134.06;;;9.77;70.32
30875;BME280;17581;43.222;27.924;2024-03-08T11:12:25;101138.81;;;9.86;70.64
30875;BME280;17581;43.222;27.924;2024-03-08T11:14:54;101138.91;;;9.84;69.90
30875;BME280;17581;43.222;27.924;2024-03-08T11:17:40;101136.03;;;9.88;69.47
30875;BME280;17581;43.222;27.924;2024-03-08T11:20:13;101137.84;;;10.00;69.13
30875;BME280;17581;43.222;27.924;2024-03-08T11:25:37;101141.34;;;10.13;67.85
30875;BME280;17581;43.222;27.924;2024-03-08T11:28:18;101127.19;;;9.98;67.59
30875;BME280;17581;43.222;27.924;2024-03-08T11:31:29;101127.75;;;9.91;67.78
30875;BME280;17581;43.222;27.924;2024-03-08T11:33:34;101127.75;;;9.78;68.37
30875;BME280;17581;43.222;27.924;2024-03-08T11:36:23;101131.25;;;9.78;69.30
30875;BME280;17581;43.222;27.924;2024-03-08T11:38:50;101131.28;;;9.66;68.58
30875;BME280;17581;43.222;27.924;2024-03-08T11:41:22;101124.06;;;9.66;68.75
30875;BME280;17581;43.222;27.924;2024-03-08T11:44:03;101141.91;;;9.67;68.66
30875;BME280;17581;43.222;27.924;2024-03-08T11:46:32;101136.88;;;9.63;69.09
30875;BME280;17581;43.222;27.924;2024-03-08T11:49:00;101140.38;;;9.63;68.67
30875;BME280;17581;43.222;27.924;2024-03-08T11:51:26;101133.63;;;9.58;69.12
30875;BME280;17581;43.222;27.924;2024-03-08T11:53:52;101119.47;;;9.68;69.24
30875;BME280;17581;43.222;27.924;2024-03-08T11:56:18;101134.50;;;9.83;68.79
30875;BME280;17581;43.222;27.924;2024-03-08T11:58:56;101142.22;;;10.01;68.48
30875;BME280;17581;43.222;27.924;2024-03-08T12:01:22;101141.16;;;10.16;68.11
30875;BME280;17581;43.222;27.924;2024-03-08T12:03:56;101141.69;;;9.96;67.71
30875;BME280;17581;43.222;27.924;2024-03-08T12:06:25;101136.41;;;9.94;67.41
30875;BME280;17581;43.222;27.924;2024-03-08T12:08:52;101136.31;;;9.96;67.73
30875;BME280;17581;43.222;27.924;2024-03-08T12:11:19;101139.66;;;10.12;67.78
30875;BME280;17581;43.222;27.924;2024-03-08T12:13:49;101134.91;;;10.28;67.46
30875;BME280;17581;43.222;27.924;2024-03-08T12:16:18;101143.41;;;10.22;65.48
30875;BME280;17581;43.222;27.924;2024-03-08T12:18:44;101127.19;;;10.23;65.13
30875;BME280;17581;43.222;27.924;2024-03-08T12:21:12;101138.16;;;10.20;66.27
30875;BME280;17581;43.222;27.924;2024-03-08T12:23:39;101140.84;;;10.33;66.18
30875;BME280;17581;43.222;27.924;2024-03-08T12:26:15;101148.88;;;10.46;65.28
30875;BME280;17581;43.222;27.924;2024-03-08T12:28:42;101144.22;;;10.48;64.72
30875;BME280;17581;43.222;27.924;2024-03-08T12:31:13;101145.31;;;10.45;64.93
30875;BME280;17581;43.222;27.924;2024-03-08T12:36:18;101139.34;;;10.65;64.20
30875;BME280;17581;43.222;27.924;2024-03-08T12:38:47;101139.22;;;10.67;63.73
30875;BME280;17581;43.222;27.924;2024-03-08T12:41:19;101142.47;;;10.59;63.15
30875;BME280;17581;43.222;27.924;2024-03-08T12:43:45;101125.06;;;10.52;63.40
30875;BME280;17581;43.222;27.924;2024-03-08T12:46:20;101136.59;;;10.54;63.17
30875;BME280;17581;43.222;27.924;2024-03-08T12:48:46;101142.69;;;10.56;63.14
30875;BME280;17581;43.222;27.924;2024-03-08T12:51:16;101130.13;;;10.57;63.92
30875;BME280;17581;43.222;27.924;2024-03-08T12:53:43;101116.91;;;10.54;63.56
30875;BME280;17581;43.222;27.924;2024-03-08T12:56:13;101127.38;;;10.46;63.93